createdAt,value
2022-08-05T00:00:20.304Z,99978.03
2022-08-05T00:02:50.685Z,99967.38
2022-08-05T00:06:02.817Z,99978.19
2022-08-05T00:08:32.541Z,99936.13
2022-08-05T00:11:01.421Z,99990.53
2022-08-05T00:13:38.763Z,99953.31
2022-08-05T00:16:12.982Z,99986.69
2022-08-05T00:18:44.234Z,99933.97
2022-08-05T00:21:14.500Z,99979.00
2022-08-05T00:23:46.196Z,99982.41
2022-08-05T00:26:21.983Z,99963.22
2022-08-05T00:28:51.007Z,99982.53
2022-08-05T00:31:53.696Z,99963.38
2022-08-05T00:34:54.613Z,99976.50
2022-08-05T00:39:58.002Z,99976.81
2022-08-05T00:42:37.685Z,99979.63
2022-08-05T00:45:08.532Z,99948.88
2022-08-05T00:47:52.996Z,99976.13
2022-08-05T00:50:25.396Z,99928.22
2022-08-05T00:52:55.024Z,99958.59
2022-08-05T00:55:23.067Z,99976.00
2022-08-05T00:58:01.605Z,99967.16
2022-08-05T01:00:32.138Z,99976.94
2022-08-05T01:03:00.889Z,99971.50
2022-08-05T01:05:28.462Z,99970.50
2022-08-05T01:08:41.128Z,99965.91
2022-08-05T01:11:10.241Z,99969.34
2022-08-05T01:13:59.045Z,99968.31
2022-08-05T01:16:37.683Z,99898.59
2022-08-05T01:19:46.297Z,99973.97
2022-08-05T01:22:32.146Z,99972.94
2022-08-05T01:25:22.988Z,99974.72
2022-08-05T01:28:06.018Z,99983.56
2022-08-05T01:30:40.126Z,99980.81
2022-08-05T01:33:25.346Z,99965.13
2022-08-05T01:35:57.446Z,99949.28
2022-08-05T01:38:29.919Z,99952.78
2022-08-05T01:41:02.503Z,99974.78
2022-08-05T01:43:30.834Z,99960.97
2022-08-05T01:46:07.388Z,99976.13
2022-08-05T01:48:49.548Z,99946.44
2022-08-05T01:51:18.990Z,99977.25
2022-08-05T01:53:57.121Z,99970.16
2022-08-05T01:58:10.131Z,99969.09
2022-08-05T01:59:26.903Z,99950.00
2022-08-05T02:01:56.320Z,99973.72
2022-08-05T02:04:28.198Z,99967.00
2022-08-05T02:06:59.200Z,99943.44
2022-08-05T02:09:27.260Z,99943.56
2022-08-05T02:12:17.839Z,99967.50
2022-08-05T02:14:53.381Z,99977.22
2022-08-05T02:18:28.825Z,99942.78
2022-08-05T02:20:25.187Z,99970.78
2022-08-05T02:23:00.330Z,99958.88
2022-08-05T02:25:49.302Z,99976.38
2022-08-05T02:28:29.228Z,99987.59
2022-08-05T02:35:27.667Z,99983.06
2022-08-05T02:38:00.082Z,100004.31
2022-08-05T02:40:27.868Z,99994.66
2022-08-05T02:42:57.041Z,100016.84
2022-08-05T02:45:27.181Z,99997.53
2022-08-05T02:48:06.505Z,100005.56
2022-08-05T02:50:38.737Z,100005.63
2022-08-05T02:53:19.106Z,100007.03
2022-08-05T02:55:55.290Z,100016.03
2022-08-05T02:58:28.859Z,100000.22
2022-08-05T03:01:01.866Z,100020.25
2022-08-05T03:03:34.360Z,99981.63
2022-08-05T03:06:53.999Z,100000.88
2022-08-05T03:09:07.718Z,100007.38
2022-08-05T03:11:55.142Z,100031.31
2022-08-05T03:14:22.369Z,100028.00
2022-08-05T03:16:49.858Z,100036.97
2022-08-05T03:19:32.981Z,100037.13
2022-08-05T03:22:00.785Z,100037.25
2022-08-05T03:24:30.820Z,99996.22
2022-08-05T03:26:59.256Z,100044.47
2022-08-05T03:29:45.635Z,100019.88
2022-08-05T03:32:15.947Z,100039.41
2022-08-05T03:34:51.346Z,100034.00
2022-08-05T03:37:21.342Z,100048.91
2022-08-05T03:39:59.130Z,100041.78
2022-08-05T03:42:32.805Z,100021.41
2022-08-05T03:45:01.624Z,100017.25
2022-08-05T03:47:35.415Z,100044.97
2022-08-05T03:50:08.625Z,100047.31
2022-08-05T03:55:54.083Z,100055.06
2022-08-05T03:56:42.324Z,100063.28
2022-08-05T03:59:47.240Z,100060.38
2022-08-05T04:02:38.391Z,100062.72
2022-08-05T04:15:40.064Z,100061.81
2022-08-05T04:18:27.444Z,100039.59
2022-08-05T04:20:58.781Z,100031.16
2022-08-05T04:24:05.977Z,100060.47
2022-08-05T04:26:20.965Z,100065.28
2022-08-05T04:28:51.015Z,100067.22
2022-08-05T04:31:20.072Z,100057.75
2022-08-05T04:34:18.208Z,100042.53
2022-08-05T04:36:49.512Z,100062.72
2022-08-05T04:39:18.814Z,100037.84
2022-08-05T04:41:48.247Z,100059.06
2022-08-05T04:44:21.532Z,100026.09
2022-08-05T04:47:08.961Z,100059.22
2022-08-05T04:49:38.850Z,100063.06
2022-08-05T04:52:27.666Z,100064.78
2022-08-05T04:54:57.189Z,100054.56
2022-08-05T04:57:28.593Z,100060.91
2022-08-05T04:59:58.724Z,100062.06
2022-08-05T05:02:37.470Z,100048.03
2022-08-05T05:05:26.564Z,100060.44
2022-08-05T05:08:01.848Z,100058.56
2022-08-05T05:10:31.024Z,100042.03
2022-08-05T05:13:01.653Z,100051.94
2022-08-05T05:15:57.320Z,100065.53
2022-08-05T05:18:30.967Z,100058.53
2022-08-05T05:21:00.676Z,100061.13
2022-08-05T05:23:39.220Z,100059.19
2022-08-05T05:26:15.297Z,100062.34
2022-08-05T05:28:42.826Z,100063.09
2022-08-05T05:31:12.356Z,100061.06
2022-08-05T05:33:58.847Z,100057.97
2022-08-05T05:36:28.518Z,100057.72
2022-08-05T05:38:57.424Z,100054.53
2022-08-05T05:41:24.975Z,100035.53
2022-08-05T05:43:57.906Z,100022.28
2022-08-05T05:46:27.677Z,100057.47
2022-08-05T05:48:55.082Z,100059.31
2022-08-05T05:51:24.155Z,100055.44
2022-08-05T05:53:57.211Z,100060.19
2022-08-05T05:56:33.021Z,100036.47
2022-08-05T05:59:07.519Z,100026.63
2022-08-05T06:01:38.954Z,100056.31
2022-08-05T06:04:11.852Z,100052.50
2022-08-05T06:06:47.627Z,100052.28
2022-08-05T06:09:25.934Z,100046.56
2022-08-05T06:12:04.309Z,100051.50
2022-08-05T06:14:32.335Z,100035.66
2022-08-05T06:17:01.880Z,100048.28
2022-08-05T06:19:33.966Z,100064.28
2022-08-05T06:22:03.938Z,100063.25
2022-08-05T06:24:31.985Z,100071.16
2022-08-05T06:26:59.065Z,100043.81
2022-08-05T06:29:52.107Z,100050.44
2022-08-05T06:32:24.890Z,100045.19
2022-08-05T06:34:57.920Z,100020.22
2022-08-05T06:37:57.020Z,100069.28
2022-08-05T06:40:18.512Z,100049.34
2022-08-05T06:42:52.825Z,100056.06
2022-08-05T06:45:44.404Z,100034.84
2022-08-05T06:48:47.023Z,100062.88
2022-08-05T06:50:56.998Z,100062.03
2022-08-05T06:53:28.384Z,100049.63
2022-08-05T06:56:00.440Z,100070.06
2022-08-05T06:58:35.323Z,100064.03
2022-08-05T07:01:06.324Z,100057.09
2022-08-05T07:03:35.054Z,100016.78
2022-08-05T07:18:01.319Z,100070.88
2022-08-05T07:19:04.888Z,100061.38
2022-08-05T07:21:59.562Z,100067.41
2022-08-05T07:24:22.283Z,100072.44
2022-08-05T07:26:49.476Z,100070.75
2022-08-05T07:29:17.030Z,100080.44
2022-08-05T07:31:54.737Z,100048.00
2022-08-05T07:34:26.249Z,100055.13
2022-08-05T07:36:55.739Z,100052.59
2022-08-05T07:39:24.628Z,100056.63
2022-08-05T07:42:14.131Z,100035.91
2022-08-05T07:44:42.904Z,100055.66
2022-08-05T07:47:14.787Z,100037.19
2022-08-05T07:49:43.637Z,100045.84
2022-08-05T07:52:23.949Z,100046.75
2022-08-05T07:54:53.403Z,100055.06
2022-08-05T07:57:51.346Z,100043.03
2022-08-05T08:00:11.403Z,100060.00
2022-08-05T08:03:14.511Z,100034.44
2022-08-05T08:05:29.049Z,100048.22
2022-08-05T08:08:00.274Z,100015.63
2022-08-05T08:10:28.681Z,100022.91
2022-08-05T08:12:58.576Z,100039.47
2022-08-05T08:15:37.304Z,100032.19
2022-08-05T08:18:14.089Z,100040.44
2022-08-05T08:20:44.242Z,100045.81
2022-08-05T08:24:02.727Z,100029.13
2022-08-05T08:26:02.777Z,100012.34
2022-08-05T08:28:36.050Z,100030.38
2022-08-05T08:31:07.886Z,100047.84
2022-08-05T08:33:37.438Z,100044.75
2022-08-05T08:38:56.930Z,100053.13
2022-08-05T08:41:51.225Z,100040.66
2022-08-05T08:45:18.248Z,100014.31
2022-08-05T08:47:46.853Z,100036.88
2022-08-05T08:50:22.856Z,100043.41
2022-08-05T08:52:54.249Z,100033.56
2022-08-05T08:55:31.982Z,100021.91
2022-08-05T08:58:13.028Z,100051.31
2022-08-05T09:00:42.579Z,100043.94
2022-08-05T09:03:11.388Z,100037.56
2022-08-05T09:06:07.539Z,100012.09
2022-08-05T09:08:26.580Z,100044.53
2022-08-05T09:10:54.840Z,100040.41
2022-08-05T09:13:23.492Z,100033.78
2022-08-05T09:15:51.863Z,100047.94
2022-08-05T09:18:18.993Z,100035.16
2022-08-05T09:20:47.243Z,100040.13
2022-08-05T09:23:21.970Z,100032.66
2022-08-05T09:26:03.111Z,100004.25
2022-08-05T09:28:33.797Z,100029.59
2022-08-05T09:31:23.483Z,100012.28
2022-08-05T09:33:58.761Z,100022.94
2022-08-05T09:36:54.449Z,100005.19
2022-08-05T09:39:41.917Z,100028.66
2022-08-05T09:42:17.290Z,100013.34
2022-08-05T09:44:56.790Z,99997.31
2022-08-05T09:47:34.907Z,100017.13
2022-08-05T09:50:18.043Z,100007.47
2022-08-05T09:53:01.793Z,100012.63
2022-08-05T09:55:57.261Z,100005.25
2022-08-05T09:58:24.116Z,100004.00
2022-08-05T10:00:54.146Z,100002.19
2022-08-05T10:03:21.610Z,100014.19
2022-08-05T10:06:07.821Z,99999.75
2022-08-05T10:08:50.212Z,99998.75
2022-08-05T10:11:21.105Z,99996.50
2022-08-05T10:13:49.215Z,99930.00
2022-08-05T10:16:41.825Z,100016.13
2022-08-05T10:19:23.723Z,100011.91
2022-08-05T10:22:15.801Z,100012.00
2022-08-05T10:24:57.995Z,99999.59
2022-08-05T10:28:09.153Z,100010.25
2022-08-05T10:31:19.977Z,99995.38
2022-08-05T10:33:02.574Z,99985.84
2022-08-05T10:35:33.759Z,100003.00
2022-08-05T10:38:08.612Z,100006.50
2022-08-05T10:40:58.184Z,99994.41
2022-08-05T10:43:53.377Z,99998.78
2022-08-05T10:46:24.056Z,99998.81
2022-08-05T10:49:02.764Z,99987.16
2022-08-05T10:51:59.571Z,99979.25
2022-08-05T10:54:56.190Z,99980.81
2022-08-05T10:57:31.836Z,99988.56
2022-08-05T11:00:20.862Z,99978.88
2022-08-05T11:02:59.246Z,99984.34
2022-08-05T11:06:08.348Z,99987.28
2022-08-05T11:09:39.360Z,99980.44
2022-08-05T11:12:41.214Z,99972.91
2022-08-05T11:16:01.278Z,99971.47
2022-08-05T11:18:26.384Z,99951.16
2022-08-05T11:20:54.214Z,99970.81
2022-08-05T11:23:33.712Z,99969.59
2022-08-05T11:26:28.751Z,99971.94
2022-08-05T11:29:12.788Z,99963.97
2022-08-05T11:31:54.193Z,99948.34
2022-08-05T11:34:37.830Z,99965.38
2022-08-05T11:37:06.119Z,99979.63
2022-08-05T11:40:00.779Z,99966.84
2022-08-05T11:42:38.040Z,99931.88
2022-08-05T11:45:23.438Z,99956.81
2022-08-05T11:47:56.054Z,99963.63
2022-08-05T11:50:25.127Z,99959.22
2022-08-05T11:52:57.663Z,99962.69
2022-08-05T11:55:32.194Z,99959.31
2022-08-05T11:58:09.941Z,99964.44
2022-08-05T12:00:40.473Z,99947.66
2022-08-05T12:03:29.461Z,99964.44
2022-08-05T12:06:09.679Z,99939.28
2022-08-05T12:08:57.590Z,99947.16
2022-08-05T12:11:39.797Z,99956.78
2022-08-05T12:14:08.775Z,99955.81
2022-08-05T12:16:40.539Z,99961.69
2022-08-05T12:20:25.800Z,99957.19
2022-08-05T12:22:01.703Z,99971.50
2022-08-05T12:24:28.731Z,99928.34
2022-08-05T12:26:57.709Z,99955.97
2022-08-05T12:29:26.683Z,99949.78
2022-08-05T12:31:55.291Z,99956.94
2022-08-05T12:34:25.751Z,99945.31
2022-08-05T12:36:54.682Z,99949.06
2022-08-05T12:39:34.252Z,99925.56
2022-08-05T12:42:03.091Z,99950.72
2022-08-05T12:44:33.606Z,99943.50
2022-08-05T12:47:02.304Z,99946.44
2022-08-05T12:50:04.221Z,99946.09
2022-08-05T12:52:42.712Z,99946.09
2022-08-05T12:55:23.302Z,99943.09
2022-08-05T12:58:38.175Z,99951.22
2022-08-05T13:02:01.083Z,99947.97
2022-08-05T13:03:41.413Z,99948.13
2022-08-05T13:06:52.043Z,99940.22
2022-08-05T13:09:28.030Z,99937.38
2022-08-05T13:12:13.214Z,99944.09
2022-08-05T13:14:48.025Z,99940.66
2022-08-05T13:17:41.300Z,99906.13
2022-08-05T13:20:12.178Z,99929.22
2022-08-05T13:22:43.422Z,99926.28
2022-08-05T13:25:19.519Z,99922.03
2022-08-05T13:27:50.626Z,99927.28
2022-08-05T13:30:33.862Z,99902.41
2022-08-05T13:33:03.323Z,99903.41
2022-08-05T13:35:47.544Z,99905.44
2022-08-05T13:38:28.182Z,99882.69
2022-08-05T13:40:59.889Z,99890.09
2022-08-05T13:43:45.582Z,99903.88
2022-08-05T13:46:16.321Z,99895.47
2022-08-05T13:49:00.962Z,99896.31
2022-08-05T13:51:40.456Z,99915.34
2022-08-05T13:54:11.761Z,99908.25
2022-08-05T13:56:45.137Z,99901.63
2022-08-05T13:59:24.207Z,99894.50
2022-08-05T14:01:56.815Z,99901.72
2022-08-05T14:04:49.422Z,99899.06
2022-08-05T14:07:55.705Z,99903.63
2022-08-05T14:10:19.065Z,99908.19
2022-08-05T14:12:55.191Z,99882.25
2022-08-05T14:16:08.517Z,99870.00
2022-08-05T14:18:15.142Z,99874.50
2022-08-05T14:20:48.148Z,99905.06
2022-08-05T14:23:25.145Z,99900.84
2022-08-05T14:25:58.773Z,99869.28
2022-08-05T14:28:28.909Z,99888.16
2022-08-05T14:30:57.406Z,99893.53
2022-08-05T14:33:24.651Z,99899.16
2022-08-05T14:35:54.057Z,99894.72
2022-08-05T14:38:31.808Z,99876.16
2022-08-05T14:41:06.712Z,99887.63
2022-08-05T14:44:01.781Z,99894.75
2022-08-05T14:46:28.051Z,99899.56
2022-08-05T14:48:59.550Z,99876.63
2022-08-05T14:51:31.270Z,99898.41
2022-08-05T14:54:26.351Z,99876.41
2022-08-05T14:56:47.318Z,99896.03
2022-08-05T14:59:15.436Z,99872.75
2022-08-05T15:01:48.683Z,99900.03
2022-08-05T15:04:20.459Z,99894.22
2022-08-05T15:06:49.771Z,99896.28
2022-08-05T15:09:52.140Z,99885.50
2022-08-05T15:12:06.876Z,99900.88
2022-08-05T15:14:48.328Z,99895.34
2022-08-05T15:17:46.896Z,99902.44
2022-08-05T15:20:07.535Z,99869.88
2022-08-05T15:22:37.866Z,99872.09
2022-08-05T15:25:11.648Z,99898.50
2022-08-05T15:27:42.765Z,99912.63
2022-08-05T15:30:14.389Z,99897.56
2022-08-05T15:32:43.536Z,99905.94
2022-08-05T15:35:12.590Z,99885.16
2022-08-05T15:38:33.752Z,99843.97
2022-08-05T15:41:00.212Z,99891.84
2022-08-05T15:43:20.416Z,99893.72
2022-08-05T15:46:00.733Z,99892.25
2022-08-05T15:48:30.125Z,99899.53
2022-08-05T15:51:01.043Z,99884.56
2022-08-05T15:53:38.515Z,99892.13
2022-08-05T15:56:19.632Z,99889.28
2022-08-05T15:58:47.815Z,99867.56
2022-08-05T16:01:17.683Z,99862.53
2022-08-05T16:03:50.423Z,99892.63
2022-08-05T16:06:20.345Z,99905.25
2022-08-05T16:08:50.258Z,99914.84
2022-08-05T16:11:21.090Z,99909.66
2022-08-05T16:14:05.994Z,99882.47
2022-08-05T16:16:35.320Z,99901.50
2022-08-05T16:19:03.669Z,99872.56
2022-08-05T16:22:01.083Z,99903.56
2022-08-05T16:24:40.650Z,99913.28
2022-08-05T16:27:07.392Z,99915.72
2022-08-05T16:29:37.311Z,99922.38
2022-08-05T16:32:09.705Z,99907.91
2022-08-05T16:34:39.237Z,99916.94
2022-08-05T16:37:15.422Z,99917.38
2022-08-05T16:40:05.735Z,99901.97
2022-08-05T16:42:35.777Z,99927.78
2022-08-05T16:46:02.894Z,99917.41
2022-08-05T16:47:53.603Z,99923.91
2022-08-05T16:50:24.486Z,99919.16
2022-08-05T16:52:51.596Z,99902.78
2022-08-05T16:55:20.396Z,99899.13
2022-08-05T16:58:00.128Z,99925.63
2022-08-05T17:00:34.340Z,99925.34
2022-08-05T17:03:03.784Z,99935.88
2022-08-05T17:05:37.608Z,99913.06
2022-08-05T17:08:05.167Z,99943.41
2022-08-05T17:10:34.968Z,99943.09
2022-08-05T17:13:04.798Z,99934.63
2022-08-05T17:15:48.444Z,99932.78
2022-08-05T17:18:17.131Z,99921.06
2022-08-05T17:20:46.137Z,99938.19
2022-08-05T17:24:04.595Z,99918.91
2022-08-05T17:26:00.396Z,99909.25
2022-08-05T17:28:29.492Z,99937.44
2022-08-05T17:30:56.857Z,99925.84
2022-08-05T17:33:25.643Z,99924.94
2022-08-05T17:36:08.346Z,99912.69
2022-08-05T17:38:39.875Z,99940.75
2022-08-05T17:41:11.606Z,99947.88
2022-08-05T17:43:55.858Z,99915.56
2022-08-05T17:46:25.151Z,99934.19
2022-08-05T17:48:52.426Z,99932.03
2022-08-05T17:51:21.522Z,99942.47
2022-08-05T17:53:50.934Z,99928.78
2022-08-05T17:56:22.691Z,99909.16
2022-08-05T17:58:51.162Z,99946.31
2022-08-05T18:01:19.937Z,99919.63
2022-08-05T18:03:59.368Z,99942.72
2022-08-05T18:06:32.358Z,99953.63
2022-08-05T18:08:59.677Z,99951.25
2022-08-05T18:11:33.596Z,99946.03
2022-08-05T18:14:07.537Z,99944.59
2022-08-05T18:16:46.793Z,99950.63
2022-08-05T18:19:18.742Z,99952.88
2022-08-05T18:22:09.749Z,99964.09
2022-08-05T18:24:39.526Z,99936.72
2022-08-05T18:27:18.261Z,99961.41
2022-08-05T18:29:51.916Z,99961.78
2022-08-05T18:32:28.418Z,99966.06
2022-08-05T18:34:57.946Z,99963.53
2022-08-05T18:37:34.522Z,99969.91
2022-08-05T18:40:34.397Z,99975.69
2022-08-05T18:42:56.790Z,99967.81
2022-08-05T18:45:24.929Z,99967.19
2022-08-05T18:48:07.982Z,99948.41
2022-08-05T18:50:57.214Z,99957.56
2022-08-05T18:53:34.762Z,99945.44
2022-08-05T18:56:12.619Z,99953.63
2022-08-05T18:58:40.232Z,99925.81
2022-08-05T19:01:10.277Z,99963.53
2022-08-05T19:03:55.414Z,99958.31
2022-08-05T19:06:37.176Z,99940.28
2022-08-05T19:09:10.785Z,99960.81
2022-08-05T19:12:00.376Z,99953.84
2022-08-05T19:14:59.489Z,99963.50
2022-08-05T19:17:12.927Z,99964.66
2022-08-05T19:19:47.065Z,99957.31
2022-08-05T19:22:17.184Z,99967.13
2022-08-05T19:24:54.287Z,99941.94
2022-08-05T19:27:30.123Z,99925.72
2022-08-05T19:29:58.468Z,99967.50
2022-08-05T19:32:26.104Z,99929.47
2022-08-05T19:35:21.876Z,99964.41
2022-08-05T19:38:10.643Z,99964.56
2022-08-05T19:47:29.200Z,99960.97
2022-08-05T19:50:01.199Z,99963.78
2022-08-05T19:52:40.321Z,99972.03
2022-08-05T19:56:13.768Z,99966.06
2022-08-05T19:58:14.229Z,99946.22
2022-08-05T20:00:42.852Z,99962.19
2022-08-05T20:03:11.109Z,99942.75
2022-08-05T20:05:43.403Z,99967.38
2022-08-05T20:08:17.707Z,99965.03
2022-08-05T20:10:45.002Z,99948.59
2022-08-05T20:13:18.130Z,99948.09
2022-08-05T20:15:57.874Z,99947.66
2022-08-05T20:18:35.964Z,99962.59
2022-08-05T20:21:06.788Z,99951.13
2022-08-05T20:23:51.274Z,99941.50
2022-08-05T20:26:22.055Z,99933.56
2022-08-05T20:28:54.463Z,99944.88
2022-08-05T20:31:37.670Z,99956.50
2022-08-05T20:34:12.303Z,99954.97
2022-08-05T20:36:43.006Z,99930.97
2022-08-05T20:39:12.975Z,99935.56
2022-08-05T20:41:43.988Z,99908.34
2022-08-05T20:44:19.142Z,99936.34
2022-08-05T20:46:59.257Z,99931.13
2022-08-05T20:49:27.217Z,99937.53
2022-08-05T20:51:57.392Z,99859.06
2022-08-05T20:54:43.127Z,99954.50
2022-08-05T20:57:42.541Z,99945.16
2022-08-05T21:00:19.607Z,99941.31
2022-08-05T21:02:56.107Z,99929.34
2022-08-05T21:05:24.452Z,99947.22
2022-08-05T21:07:52.153Z,99927.38
2022-08-05T21:10:20.589Z,99936.16
2022-08-05T21:13:08.742Z,99935.38
2022-08-05T21:15:36.928Z,99930.84
2022-08-05T21:18:04.298Z,99939.19
2022-08-05T21:20:32.588Z,99933.88
2022-08-05T21:23:00.885Z,99913.44
2022-08-05T21:25:33.934Z,99929.97
2022-08-05T21:28:03.292Z,99916.88
2022-08-05T21:30:31.718Z,99936.25
2022-08-05T21:33:01.812Z,99904.84
2022-08-05T21:35:43.683Z,99898.06
2022-08-05T21:38:19.332Z,99922.66
2022-08-05T21:40:46.581Z,99920.84
2022-08-05T21:43:17.649Z,99929.56
2022-08-05T21:45:56.674Z,99923.69
2022-08-05T21:48:28.140Z,99936.88
2022-08-05T21:50:55.735Z,99898.38
2022-08-05T21:53:27.322Z,99935.09
2022-08-05T21:56:06.579Z,99915.78
2022-08-05T21:58:57.001Z,99930.03
2022-08-05T22:01:25.001Z,99909.63
2022-08-05T22:03:53.667Z,99930.72
2022-08-05T22:06:22.944Z,99942.13
2022-08-05T22:09:02.446Z,99932.09
2022-08-05T22:11:41.213Z,99940.94
2022-08-05T22:14:33.303Z,99938.41
2022-08-05T22:17:00.202Z,99926.38
2022-08-05T22:20:00.103Z,99940.47
2022-08-05T22:22:26.908Z,99940.94
2022-08-05T22:25:21.873Z,99939.19
2022-08-05T22:28:08.390Z,99935.13
2022-08-05T22:30:44.025Z,99919.88
2022-08-05T22:33:56.754Z,99942.50
2022-08-05T22:36:10.110Z,99914.81
2022-08-05T22:38:37.146Z,99940.28
2022-08-05T22:41:09.624Z,99936.00
2022-08-05T22:43:38.466Z,99947.56
2022-08-05T22:46:13.192Z,99939.00
2022-08-05T22:48:43.252Z,99949.75
2022-08-05T22:51:16.023Z,99963.44
2022-08-05T22:53:51.159Z,99947.44
2022-08-05T22:56:30.381Z,99952.69
2022-08-05T22:59:03.246Z,99960.03
2022-08-05T23:02:04.782Z,99946.09
2022-08-05T23:04:33.988Z,99961.94
2022-08-05T23:07:01.352Z,99955.13
2022-08-05T23:09:57.636Z,99954.97
2022-08-05T23:12:18.013Z,99911.88
2022-08-05T23:14:45.376Z,99945.97
2022-08-05T23:17:34.918Z,99935.38
2022-08-05T23:20:17.686Z,99954.53
2022-08-05T23:22:47.458Z,99958.16
2022-08-05T23:25:54.734Z,99961.78
2022-08-05T23:28:07.616Z,99924.44
2022-08-05T23:30:40.326Z,99956.84
2022-08-05T23:33:16.163Z,99939.44
2022-08-05T23:35:49.633Z,99958.88
2022-08-05T23:38:17.044Z,99955.25
2022-08-05T23:40:49.746Z,99946.69
2022-08-05T23:43:25.090Z,99953.00
2022-08-05T23:46:19.730Z,99951.06
2022-08-05T23:49:00.658Z,99947.63
2022-08-05T23:51:53.456Z,99944.81
2022-08-05T23:54:30.467Z,99916.81
2022-08-05T23:57:05.304Z,99950.19
